sensor_id;sensor_type;location;lat;lon;timestamp;pressure;altitude;pressure_sealevel;temperature;humidity
62980;BME280;49075;53.988;27.678;2022-09-29T00:03:46;973.1;;;7.1;83
62980;BME280;49075;53.988;27.678;2022-09-29T00:09:12;973.1;;;7.2;82.8
62980;BME280;49075;53.988;27.678;2022-09-29T00:13:50;973.2;;;7.2;82.8
62980;BME280;49075;53.988;27.678;2022-09-29T00:18:48;973.3;;;7.3;82.7
62980;BME280;49075;53.988;27.678;2022-09-29T00:23:40;973.2;;;7.3;82.5
62980;BME280;49075;53.988;27.678;2022-09-29T00:29:12;973.2;;;7.2;82.7
62980;BME280;49075;53.988;27.678;2022-09-29T00:33:44;973.2;;;7.3;82.3
62980;BME280;49075;53.988;27.678;2022-09-29T00:39:12;973.3;;;7.2;82.3
62980;BME280;49075;53.988;27.678;2022-09-29T00:43:51;973.3;;;7.3;82.1
62980;BME280;49075;53.988;27.678;2022-09-29T00:49:17;973.3;;;7.3;82.1
62980;BME280;49075;53.988;27.678;2022-09-29T00:54:14;973.3;;;7.3;82
62980;BME280;49075;53.988;27.678;2022-09-29T00:59:00;973.3;;;7.4;81.8
62980;BME280;49075;53.988;27.678;2022-09-29T01:03:51;973.3;;;7.4;81.7
62980;BME280;49075;53.988;27.678;2022-09-29T01:08:51;973.4;;;7.5;81.5
62980;BME280;49075;53.988;27.678;2022-09-29T01:14:14;973.5;;;7.3;81.7
62980;BME280;49075;53.988;27.678;2022-09-29T01:19:15;973.5;;;7.2;81.8
62980;BME280;49075;53.988;27.678;2022-09-29T01:23:43;973.5;;;7.3;81.5
62980;BME280;49075;53.988;27.678;2022-09-29T01:29:26;973.5;;;7.3;81.2
62980;BME280;49075;53.988;27.678;2022-09-29T01:34:15;973.5;;;7.3;80.9
62980;BME280;49075;53.988;27.678;2022-09-29T01:39:33;973.5;;;7.2;80.8
62980;BME280;49075;53.988;27.678;2022-09-29T01:43:50;973.5;;;7.2;80.9
62980;BME280;49075;53.988;27.678;2022-09-29T01:48:47;973.6;;;7.1;81
62980;BME280;49075;53.988;27.678;2022-09-29T01:54:15;973.6;;;7;81
62980;BME280;49075;53.988;27.678;2022-09-29T01:58:56;973.6;;;7;81.1
62980;BME280;49075;53.988;27.678;2022-09-29T02:03:54;973.6;;;6.9;81.2
62980;BME280;49075;53.988;27.678;2022-09-29T02:09:13;973.7;;;6.8;81.4
62980;BME280;49075;53.988;27.678;2022-09-29T02:13:58;973.7;;;6.7;81.6
62980;BME280;49075;53.988;27.678;2022-09-29T02:19:17;973.6;;;6.7;81.7
62980;BME280;49075;53.988;27.678;2022-09-29T02:24:18;973.6;;;6.5;82.1
62980;BME280;49075;53.988;27.678;2022-09-29T02:28:38;973.6;;;6.5;82.1
62980;BME280;49075;53.988;27.678;2022-09-29T02:33:38;973.5;;;6.4;82.1
62980;BME280;49075;53.988;27.678;2022-09-29T02:39:05;973.4;;;6.5;82.1
62980;BME280;49075;53.988;27.678;2022-09-29T02:49:23;973.5;;;6.4;82.4
62980;BME280;49075;53.988;27.678;2022-09-29T02:53:44;973.6;;;6.4;82.5
62980;BME280;49075;53.988;27.678;2022-09-29T02:59:19;973.6;;;6.4;82.7
62980;BME280;49075;53.988;27.678;2022-09-29T03:03:46;973.6;;;6.2;83.5
62980;BME280;49075;53.988;27.678;2022-09-29T03:08:46;973.5;;;6.1;83.8
62980;BME280;49075;53.988;27.678;2022-09-29T03:14:18;973.6;;;6;84.2
62980;BME280;49075;53.988;27.678;2022-09-29T03:19:18;973.7;;;5.9;84.8
62980;BME280;49075;53.988;27.678;2022-09-29T03:24:18;973.7;;;5.7;85.5
62980;BME280;49075;53.988;27.678;2022-09-29T03:28:48;973.6;;;5.7;85.6
62980;BME280;49075;53.988;27.678;2022-09-29T03:33:50;973.6;;;5.7;85.5
62980;BME280;49075;53.988;27.678;2022-09-29T03:38:50;973.6;;;5.7;85.2
62980;BME280;49075;53.988;27.678;2022-09-29T03:43:44;973.6;;;5.7;85.4
62980;BME280;49075;53.988;27.678;2022-09-29T03:48:44;973.7;;;5.7;85.4
62980;BME280;49075;53.988;27.678;2022-09-29T03:53:54;973.5;;;5.7;85.2
62980;BME280;49075;53.988;27.678;2022-09-29T03:58:46;973.6;;;5.7;85.3
62980;BME280;49075;53.988;27.678;2022-09-29T04:03:52;973.6;;;5.6;85.9
62980;BME280;49075;53.988;27.678;2022-09-29T04:08:58;973.7;;;5.7;85.4
62980;BME280;49075;53.988;27.678;2022-09-29T04:14:16;973.7;;;5.6;86.1
62980;BME280;49075;53.988;27.678;2022-09-29T04:19:16;973.8;;;5.6;85.9
62980;BME280;49075;53.988;27.678;2022-09-29T04:24:00;973.9;;;5.6;86.1
62980;BME280;49075;53.988;27.678;2022-09-29T04:28:48;973.9;;;5.7;85.6
62980;BME280;49075;53.988;27.678;2022-09-29T04:34:06;973.8;;;5.7;85.9
62980;BME280;49075;53.988;27.678;2022-09-29T04:39:16;973.5;;;5.7;85.5
62980;BME280;49075;53.988;27.678;2022-09-29T04:43:48;973.5;;;5.6;86.1
62980;BME280;49075;53.988;27.678;2022-09-29T04:48:46;973.4;;;5.7;85.4
62980;BME280;49075;53.988;27.678;2022-09-29T04:53:46;973.4;;;5.7;85.7
62980;BME280;49075;53.988;27.678;2022-09-29T04:59:18;973.4;;;5.6;85.5
62980;BME280;49075;53.988;27.678;2022-09-29T05:03:48;973.4;;;5.5;86.1
62980;BME280;49075;53.988;27.678;2022-09-29T05:09:00;973.4;;;5.4;85.9
62980;BME280;49075;53.988;27.678;2022-09-29T05:14:18;973.5;;;5.3;86.4
62980;BME280;49075;53.988;27.678;2022-09-29T05:18:50;973.4;;;5.4;85.8
62980;BME280;49075;53.988;27.678;2022-09-29T05:23:38;973.3;;;5.3;85.9
62980;BME280;49075;53.988;27.678;2022-09-29T05:28:41;973.4;;;5.6;84.9
62980;BME280;49075;53.988;27.678;2022-09-29T05:33:36;973.5;;;5.4;85.5
62980;BME280;49075;53.988;27.678;2022-09-29T05:38:48;973.6;;;5.6;84.8
62980;BME280;49075;53.988;27.678;2022-09-29T05:44:18;973.6;;;5.6;84.3
62980;BME280;49075;53.988;27.678;2022-09-29T05:48:54;973.7;;;5.9;83.6
62980;BME280;49075;53.988;27.678;2022-09-29T05:54:22;973.9;;;5.7;83.9
62980;BME280;49075;53.988;27.678;2022-09-29T05:58:58;973.9;;;5.6;84.4
62980;BME280;49075;53.988;27.678;2022-09-29T06:03:58;974;;;5.5;84.6
62980;BME280;49075;53.988;27.678;2022-09-29T06:09:18;973.9;;;5.5;84.6
62980;BME280;49075;53.988;27.678;2022-09-29T06:13:36;973.8;;;5.5;84.4
62980;BME280;49075;53.988;27.678;2022-09-29T06:18:52;973.9;;;5.7;84
62980;BME280;49075;53.988;27.678;2022-09-29T06:23:38;973.9;;;5.8;83.6
62980;BME280;49075;53.988;27.678;2022-09-29T06:28:38;974;;;5.8;83.5
62980;BME280;49075;53.988;27.678;2022-09-29T06:33:52;974.1;;;5.6;84
62980;BME280;49075;53.988;27.678;2022-09-29T06:39:00;974;;;5.7;84.1
62980;BME280;49075;53.988;27.678;2022-09-29T06:44:23;974;;;5.8;83.7
62980;BME280;49075;53.988;27.678;2022-09-29T06:49:22;974.1;;;5.9;83.5
62980;BME280;49075;53.988;27.678;2022-09-29T06:53:50;974.1;;;6;83.4
62980;BME280;49075;53.988;27.678;2022-09-29T06:58:50;974;;;6.3;82.7
62980;BME280;49075;53.988;27.678;2022-09-29T07:04:20;973.9;;;6.2;82.9
62980;BME280;49075;53.988;27.678;2022-09-29T07:08:38;974;;;6.2;82.8
62980;BME280;49075;53.988;27.678;2022-09-29T07:13:52;974;;;6.1;83
62980;BME280;49075;53.988;27.678;2022-09-29T07:18:48;974.2;;;6.2;83.1
62980;BME280;49075;53.988;27.678;2022-09-29T07:24:02;974.1;;;6.3;83
62980;BME280;49075;53.988;27.678;2022-09-29T07:28:44;974.3;;;6.3;82.7
62980;BME280;49075;53.988;27.678;2022-09-29T07:33:36;974.3;;;6.4;82.6
62980;BME280;49075;53.988;27.678;2022-09-29T07:38:38;974.5;;;6.5;82.1
62980;BME280;49075;53.988;27.678;2022-09-29T07:43:50;974.6;;;6.7;81.6
62980;BME280;49075;53.988;27.678;2022-09-29T07:48:50;974.7;;;6.8;81.5
62980;BME280;49075;53.988;27.678;2022-09-29T07:54:18;974.6;;;6.7;81.5
62980;BME280;49075;53.988;27.678;2022-09-29T07:58:44;974.6;;;7.1;81
62980;BME280;49075;53.988;27.678;2022-09-29T08:03:41;974.6;;;7.3;80.4
62980;BME280;49075;53.988;27.678;2022-09-29T08:08:48;974.7;;;7.3;80.3
62980;BME280;49075;53.988;27.678;2022-09-29T08:14:24;974.7;;;7.4;80.1
62980;BME280;49075;53.988;27.678;2022-09-29T08:18:50;974.7;;;7.4;80.4
62980;BME280;49075;53.988;27.678;2022-09-29T08:23:48;974.7;;;7.3;80.5
62980;BME280;49075;53.988;27.678;2022-09-29T08:28:48;974.6;;;7.7;80.1
62980;BME280;49075;53.988;27.678;2022-09-29T08:34:22;974.6;;;7.9;79.4
62980;BME280;49075;53.988;27.678;2022-09-29T08:38:55;974.5;;;7.9;79.9
62980;BME280;49075;53.988;27.678;2022-09-29T08:43:42;974.5;;;7.8;80
62980;BME280;49075;53.988;27.678;2022-09-29T08:48:44;974.5;;;7.9;80.3
62980;BME280;49075;53.988;27.678;2022-09-29T08:53:44;974.5;;;8;80.3
62980;BME280;49075;53.988;27.678;2022-09-29T08:59:20;974.6;;;8.1;80.3
62980;BME280;49075;53.988;27.678;2022-09-29T09:04:31;974.7;;;7.9;80.5
62980;BME280;49075;53.988;27.678;2022-09-29T09:13:50;974.7;;;8.2;80.3
62980;BME280;49075;53.988;27.678;2022-09-29T09:19:23;974.8;;;8.1;80.6
62980;BME280;49075;53.988;27.678;2022-09-29T09:23:52;974.9;;;8.1;81.1
62980;BME280;49075;53.988;27.678;2022-09-29T09:34:22;974.9;;;8.2;80.7
62980;BME280;49075;53.988;27.678;2022-09-29T09:39:36;975;;;8.1;81.2
62980;BME280;49075;53.988;27.678;2022-09-29T09:43:45;975.2;;;8;81.5
62980;BME280;49075;53.988;27.678;2022-09-29T09:49:25;975.4;;;8.2;81.3
62980;BME280;49075;53.988;27.678;2022-09-29T09:54:24;975.5;;;8.2;81.3
62980;BME280;49075;53.988;27.678;2022-09-29T09:59:23;975.5;;;8.2;81.3
62980;BME280;49075;53.988;27.678;2022-09-29T10:04:20;975.5;;;8.2;81.6
62980;BME280;49075;53.988;27.678;2022-09-29T10:09:20;975.5;;;8.2;81.8
62980;BME280;49075;53.988;27.678;2022-09-29T10:14:01;975.5;;;8.2;82.2
62980;BME280;49075;53.988;27.678;2022-09-29T10:18:52;975.6;;;8.3;81.9
62980;BME280;49075;53.988;27.678;2022-09-29T10:24:05;975.6;;;8.3;82.1
62980;BME280;49075;53.988;27.678;2022-09-29T10:29:53;975.6;;;8.3;81.9
62980;BME280;49075;53.988;27.678;2022-09-29T10:34:22;975.7;;;8.3;82.4
62980;BME280;49075;53.988;27.678;2022-09-29T10:39:37;975.6;;;8.2;82.4
62980;BME280;49075;53.988;27.678;2022-09-29T10:44:25;975.6;;;8.3;82.5
62980;BME280;49075;53.988;27.678;2022-09-29T10:49:20;975.6;;;8.3;82.4
62980;BME280;49075;53.988;27.678;2022-09-29T10:53:39;975.6;;;8.4;82.1
62980;BME280;49075;53.988;27.678;2022-09-29T10:58:39;975.6;;;8.4;82
62980;BME280;49075;53.988;27.678;2022-09-29T11:04:27;975.7;;;8.4;82
62980;BME280;49075;53.988;27.678;2022-09-29T11:09:26;975.8;;;8.4;81.8
62980;BME280;49075;53.988;27.678;2022-09-29T11:13:52;975.8;;;8.3;82
62980;BME280;49075;53.988;27.678;2022-09-29T11:19:00;975.9;;;8.4;82.1
62980;BME280;49075;53.988;27.678;2022-09-29T11:28:46;976;;;8.3;82.5
62980;BME280;49075;53.988;27.678;2022-09-29T11:34:30;976;;;8.3;82.4
62980;BME280;49075;53.988;27.678;2022-09-29T11:38:50;976;;;8.5;82.2
62980;BME280;49075;53.988;27.678;2022-09-29T11:44:21;976;;;8.4;82
62980;BME280;49075;53.988;27.678;2022-09-29T11:49:11;976.1;;;8.4;81.9
62980;BME280;49075;53.988;27.678;2022-09-29T11:54:31;976.1;;;8.3;82
62980;BME280;49075;53.988;27.678;2022-09-29T12:00:00;976.2;;;8.3;82
62980;BME280;49075;53.988;27.678;2022-09-29T12:04:02;976.2;;;8.4;82
62980;BME280;49075;53.988;27.678;2022-09-29T12:13:58;976.3;;;8.3;82.2
62980;BME280;49075;53.988;27.678;2022-09-29T12:18:56;976.3;;;8.3;82.5
62980;BME280;49075;53.988;27.678;2022-09-29T12:24:33;976.3;;;8.4;82.2
62980;BME280;49075;53.988;27.678;2022-09-29T12:28:54;976.3;;;8.3;82.5
62980;BME280;49075;53.988;27.678;2022-09-29T12:34:42;976.3;;;8.1;83.1
62980;BME280;49075;53.988;27.678;2022-09-29T12:39:27;976.3;;;8.2;82.9
62980;BME280;49075;53.988;27.678;2022-09-29T12:44:23;976.3;;;8.1;83
62980;BME280;49075;53.988;27.678;2022-09-29T12:54:29;976.4;;;8.1;82.8
62980;BME280;49075;53.988;27.678;2022-09-29T12:59:27;976.4;;;8.1;82.6
62980;BME280;49075;53.988;27.678;2022-09-29T13:04:49;976.5;;;8.1;82.6
62980;BME280;49075;53.988;27.678;2022-09-29T13:09:32;976.6;;;8;83
62980;BME280;49075;53.988;27.678;2022-09-29T13:14:00;976.6;;;8;82.8
62980;BME280;49075;53.988;27.678;2022-09-29T13:19:09;976.7;;;8.2;82.5
62980;BME280;49075;53.988;27.678;2022-09-29T13:23:51;976.7;;;8.1;82.5
62980;BME280;49075;53.988;27.678;2022-09-29T13:28:55;976.7;;;8.1;82.6
62980;BME280;49075;53.988;27.678;2022-09-29T13:33:49;976.7;;;8.2;82.4
62980;BME280;49075;53.988;27.678;2022-09-29T13:39:22;976.8;;;8.2;82.6
62980;BME280;49075;53.988;27.678;2022-09-29T13:44:23;976.9;;;8.3;82.3
62980;BME280;49075;53.988;27.678;2022-09-29T13:49:02;976.9;;;8.3;82.1
62980;BME280;49075;53.988;27.678;2022-09-29T13:53:44;976.9;;;8.4;82
62980;BME280;49075;53.988;27.678;2022-09-29T13:59:22;977;;;8.4;82
62980;BME280;49075;53.988;27.678;2022-09-29T14:04:32;977;;;8.3;82.3
62980;BME280;49075;53.988;27.678;2022-09-29T14:08:43;977;;;8.3;82.5
62980;BME280;49075;53.988;27.678;2022-09-29T14:14:26;977;;;8.3;82.6
62980;BME280;49075;53.988;27.678;2022-09-29T14:18:54;977;;;8.2;83.1
62980;BME280;49075;53.988;27.678;2022-09-29T14:24:40;977;;;8.2;83
62980;BME280;49075;53.988;27.678;2022-09-29T14:28:52;977;;;8.2;83.2
62980;BME280;49075;53.988;27.678;2022-09-29T14:34:26;977;;;8.1;83.5
62980;BME280;49075;53.988;27.678;2022-09-29T14:38:46;977;;;8.1;83.7
62980;BME280;49075;53.988;27.678;2022-09-29T14:43:39;977;;;8;83.8
62980;BME280;49075;53.988;27.678;2022-09-29T14:49:49;976.9;;;7.8;84.2
62980;BME280;49075;53.988;27.678;2022-09-29T14:53:55;977;;;8;83.6
62980;BME280;49075;53.988;27.678;2022-09-29T14:59:25;976.9;;;8;83.4
62980;BME280;49075;53.988;27.678;2022-09-29T15:04:26;976.9;;;8.1;83
62980;BME280;49075;53.988;27.678;2022-09-29T15:09:36;976.9;;;8.1;82.9
62980;BME280;49075;53.988;27.678;2022-09-29T15:13:56;976.9;;;8.2;82.7
62980;BME280;49075;53.988;27.678;2022-09-29T15:19:07;976.9;;;8.2;82.7
62980;BME280;49075;53.988;27.678;2022-09-29T15:23:57;977;;;8.2;82.5
62980;BME280;49075;53.988;27.678;2022-09-29T15:29:26;977.1;;;8.5;81.5
62980;BME280;49075;53.988;27.678;2022-09-29T15:33:56;977.1;;;8.4;81.6
62980;BME280;49075;53.988;27.678;2022-09-29T15:38:44;977.2;;;8.5;81.5
62980;BME280;49075;53.988;27.678;2022-09-29T15:44:27;977.2;;;8.4;81.5
62980;BME280;49075;53.988;27.678;2022-09-29T15:49:26;977.3;;;8.5;81.4
62980;BME280;49075;53.988;27.678;2022-09-29T15:54:28;977.3;;;8.5;81.3
62980;BME280;49075;53.988;27.678;2022-09-29T15:59:43;977.3;;;8.5;81.5
62980;BME280;49075;53.988;27.678;2022-09-29T16:03:51;977.3;;;8.4;81.4
62980;BME280;49075;53.988;27.678;2022-09-29T16:08:53;977.4;;;8.5;81.4
62980;BME280;49075;53.988;27.678;2022-09-29T16:13:53;977.4;;;8.4;81.6
62980;BME280;49075;53.988;27.678;2022-09-29T16:19:27;977.5;;;8.4;81.5
62980;BME280;49075;53.988;27.678;2022-09-29T16:24:30;977.5;;;8.4;81.5
62980;BME280;49075;53.988;27.678;2022-09-29T16:29:34;977.6;;;8.4;81.6
62980;BME280;49075;53.988;27.678;2022-09-29T16:33:37;977.7;;;8.4;81.6
62980;BME280;49075;53.988;27.678;2022-09-29T16:39:23;977.7;;;8.3;81.8
62980;BME280;49075;53.988;27.678;2022-09-29T16:43:38;977.8;;;8.4;81.7
62980;BME280;49075;53.988;27.678;2022-09-29T16:48:50;977.9;;;8.3;81.8
62980;BME280;49075;53.988;27.678;2022-09-29T16:53:50;977.8;;;8.4;81.7
62980;BME280;49075;53.988;27.678;2022-09-29T16:59:24;977.9;;;8.3;82.1
62980;BME280;49075;53.988;27.678;2022-09-29T17:03:50;977.9;;;8.3;82.1
62980;BME280;49075;53.988;27.678;2022-09-29T17:08:50;977.9;;;8.3;82.3
62980;BME280;49075;53.988;27.678;2022-09-29T17:14:24;978;;;8.2;82.4
62980;BME280;49075;53.988;27.678;2022-09-29T17:19:26;978.1;;;8.1;82.9
62980;BME280;49075;53.988;27.678;2022-09-29T17:23:50;978.1;;;8.1;83.1
62980;BME280;49075;53.988;27.678;2022-09-29T17:29:26;978.1;;;7.9;83.7
62980;BME280;49075;53.988;27.678;2022-09-29T17:33:44;978.2;;;8;83.5
62980;BME280;49075;53.988;27.678;2022-09-29T17:39:02;978.3;;;7.9;83.6
62980;BME280;49075;53.988;27.678;2022-09-29T17:43:50;978.3;;;7.9;83.7
62980;BME280;49075;53.988;27.678;2022-09-29T17:49:24;978.4;;;7.9;83.8
62980;BME280;49075;53.988;27.678;2022-09-29T17:54:24;978.4;;;7.8;84.2
62980;BME280;49075;53.988;27.678;2022-09-29T17:58:38;978.4;;;7.8;84.1
62980;BME280;49075;53.988;27.678;2022-09-29T18:03:48;978.5;;;7.8;84.4
62980;BME280;49075;53.988;27.678;2022-09-29T18:09:26;978.5;;;7.7;84.7
62980;BME280;49075;53.988;27.678;2022-09-29T18:14:16;978.5;;;7.7;84.8
62980;BME280;49075;53.988;27.678;2022-09-29T18:19:26;978.5;;;7.8;84.5
62980;BME280;49075;53.988;27.678;2022-09-29T18:23:50;978.5;;;7.8;84.7
62980;BME280;49075;53.988;27.678;2022-09-29T18:28:51;978.5;;;7.8;84.4
62980;BME280;49075;53.988;27.678;2022-09-29T18:34:24;978.5;;;7.9;84.1
62980;BME280;49075;53.988;27.678;2022-09-29T18:39:25;978.5;;;7.9;84.3
62980;BME280;49075;53.988;27.678;2022-09-29T18:43:56;978.6;;;7.9;84.1
62980;BME280;49075;53.988;27.678;2022-09-29T18:49:26;978.6;;;7.9;84.3
62980;BME280;49075;53.988;27.678;2022-09-29T18:54:24;978.7;;;7.9;84.1
62980;BME280;49075;53.988;27.678;2022-09-29T18:59:24;978.8;;;8;84
62980;BME280;49075;53.988;27.678;2022-09-29T19:04:26;978.8;;;7.9;84.2
62980;BME280;49075;53.988;27.678;2022-09-29T19:08:50;978.8;;;7.9;84.1
62980;BME280;49075;53.988;27.678;2022-09-29T19:14:06;978.8;;;8;84
62980;BME280;49075;53.988;27.678;2022-09-29T19:19:04;978.9;;;8;83.9
62980;BME280;49075;53.988;27.678;2022-09-29T19:23:42;978.9;;;8.1;83.7
62980;BME280;49075;53.988;27.678;2022-09-29T19:28:38;978.8;;;8.1;83.7
62980;BME280;49075;53.988;27.678;2022-09-29T19:33:51;978.8;;;8.2;83.4
62980;BME280;49075;53.988;27.678;2022-09-29T19:38:38;978.9;;;8.1;83.4
62980;BME280;49075;53.988;27.678;2022-09-29T19:43:44;978.9;;;8.2;83.2
62980;BME280;49075;53.988;27.678;2022-09-29T19:48:56;979;;;8.2;83.2
62980;BME280;49075;53.988;27.678;2022-09-29T19:54:10;979;;;8.3;83
62980;BME280;49075;53.988;27.678;2022-09-29T19:59:26;979.1;;;8.3;82.8
62980;BME280;49075;53.988;27.678;2022-09-29T20:03:50;979.1;;;8.4;82.6
62980;BME280;49075;53.988;27.678;2022-09-29T20:09:03;979.2;;;8.4;82.5
62980;BME280;49075;53.988;27.678;2022-09-29T20:13:38;979.2;;;8.4;82.5
62980;BME280;49075;53.988;27.678;2022-09-29T20:18:51;979.2;;;8.5;82.4
62980;BME280;49075;53.988;27.678;2022-09-29T20:24:24;979.3;;;8.5;82.3
62980;BME280;49075;53.988;27.678;2022-09-29T20:29:06;979.3;;;8.5;82.3
62980;BME280;49075;53.988;27.678;2022-09-29T20:33:54;979.3;;;8.5;82.2
62980;BME280;49075;53.988;27.678;2022-09-29T20:39:24;979.3;;;8.5;82.2
62980;BME280;49075;53.988;27.678;2022-09-29T20:43:45;979.3;;;8.6;82.1
62980;BME280;49075;53.988;27.678;2022-09-29T20:48:51;979.4;;;8.5;82.1
62980;BME280;49075;53.988;27.678;2022-09-29T20:53:51;979.3;;;8.6;82
62980;BME280;49075;53.988;27.678;2022-09-29T20:59:24;979.3;;;8.6;82
62980;BME280;49075;53.988;27.678;2022-09-29T21:03:40;979.3;;;8.6;82
62980;BME280;49075;53.988;27.678;2022-09-29T21:09:22;979.3;;;8.6;81.8
62980;BME280;49075;53.988;27.678;2022-09-29T21:14:23;979.3;;;8.6;81.9
62980;BME280;49075;53.988;27.678;2022-09-29T21:18:36;979.4;;;8.6;81.8
62980;BME280;49075;53.988;27.678;2022-09-29T21:23:42;979.4;;;8.5;81.8
62980;BME280;49075;53.988;27.678;2022-09-29T21:28:39;979.5;;;8.4;82
62980;BME280;49075;53.988;27.678;2022-09-29T21:33:55;979.7;;;8.4;82.1
62980;BME280;49075;53.988;27.678;2022-09-29T21:38:54;979.8;;;8.4;82.3
62980;BME280;49075;53.988;27.678;2022-09-29T21:44:24;979.8;;;8.3;82.5
62980;BME280;49075;53.988;27.678;2022-09-29T21:49:05;979.8;;;8.3;82.5
62980;BME280;49075;53.988;27.678;2022-09-29T21:54:24;979.7;;;8.3;82.6
62980;BME280;49075;53.988;27.678;2022-09-29T21:59:24;979.7;;;8.3;82.5
62980;BME280;49075;53.988;27.678;2022-09-29T22:04:04;979.8;;;8.2;82.5
62980;BME280;49075;53.988;27.678;2022-09-29T22:08:52;979.8;;;8.3;82.4
62980;BME280;49075;53.988;27.678;2022-09-29T22:13:57;979.8;;;8.3;82.4
62980;BME280;49075;53.988;27.678;2022-09-29T22:18:42;979.9;;;8.4;82.2
62980;BME280;49075;53.988;27.678;2022-09-29T22:24:24;979.9;;;8.4;82.1
62980;BME280;49075;53.988;27.678;2022-09-29T22:28:52;979.9;;;8.4;81.9
62980;BME280;49075;53.988;27.678;2022-09-29T22:33:52;979.9;;;8.4;81.8
62980;BME280;49075;53.988;27.678;2022-09-29T22:39:01;980;;;8.5;81.8
62980;BME280;49075;53.988;27.678;2022-09-29T22:43:50;980.1;;;8.5;81.6
62980;BME280;49075;53.988;27.678;2022-09-29T22:48:50;980.1;;;8.4;81.6
62980;BME280;49075;53.988;27.678;2022-09-29T22:54:20;980.1;;;8.4;81.6
62980;BME280;49075;53.988;27.678;2022-09-29T22:59:20;980.1;;;8.4;81.7
62980;BME280;49075;53.988;27.678;2022-09-29T23:03:41;980;;;8.4;81.6
62980;BME280;49075;53.988;27.678;2022-09-29T23:09:20;980.1;;;8.4;81.5
62980;BME280;49075;53.988;27.678;2022-09-29T23:13:38;980.1;;;8.4;81.4
62980;BME280;49075;53.988;27.678;2022-09-29T23:19:02;980.2;;;8.3;81.4
62980;BME280;49075;53.988;27.678;2022-09-29T23:23:51;980.2;;;8.3;81.5
62980;BME280;49075;53.988;27.678;2022-09-29T23:29:18;980.2;;;8.3;81.5
62980;BME280;49075;53.988;27.678;2022-09-29T23:33:38;980.2;;;8.3;81.5
62980;BME280;49075;53.988;27.678;2022-09-29T23:39:18;980.2;;;8.3;81.4
62980;BME280;49075;53.988;27.678;2022-09-29T23:43:36;980.2;;;8.2;81.3
62980;BME280;49075;53.988;27.678;2022-09-29T23:48:52;980.2;;;8.2;81.4
62980;BME280;49075;53.988;27.678;2022-09-29T23:54:22;980.3;;;8.2;81.4
62980;BME280;49075;53.988;27.678;2022-09-29T23:59:20;980.3;;;8.2;81.4
